sensor_id;sensor_type;location;lat;lon;timestamp;pressure;altitude;pressure_sealevel;temperature;humidity
35307;BME280;21420;52.196;21.416;2023-01-15T00:00:03;99728.11;;;3.49;76.07
35307;BME280;21420;52.196;21.416;2023-01-15T00:02:31;99727.58;;;3.49;76.07
35307;BME280;21420;52.196;21.416;2023-01-15T00:04:58;99710.60;;;3.48;76.10
35307;BME280;21420;52.196;21.416;2023-01-15T00:07:29;99703.84;;;3.47;76.05
35307;BME280;21420;52.196;21.416;2023-01-15T00:09:56;99704.98;;;3.45;76.08
35307;BME280;21420;52.196;21.416;2023-01-15T00:12:24;99688.95;;;3.45;76.02
35307;BME280;21420;52.196;21.416;2023-01-15T00:14:51;99696.61;;;3.44;76.09
35307;BME280;21420;52.196;21.416;2023-01-15T00:17:18;99677.77;;;3.42;76.03
35307;BME280;21420;52.196;21.416;2023-01-15T00:19:45;99677.63;;;3.39;76.01
35307;BME280;21420;52.196;21.416;2023-01-15T00:22:12;99678.67;;;3.35;76.02
35307;BME280;21420;52.196;21.416;2023-01-15T00:24:39;99671.61;;;3.33;75.95
35307;BME280;21420;52.196;21.416;2023-01-15T00:27:31;99662.59;;;3.33;76.04
35307;BME280;21420;52.196;21.416;2023-01-15T00:30:05;99661.42;;;3.35;75.93
35307;BME280;21420;52.196;21.416;2023-01-15T00:32:35;99655.88;;;3.35;76.00
35307;BME280;21420;52.196;21.416;2023-01-15T00:35:03;99652.58;;;3.36;76.03
35307;BME280;21420;52.196;21.416;2023-01-15T00:37:30;99645.76;;;3.36;76.00
35307;BME280;21420;52.196;21.416;2023-01-15T00:39:57;99635.65;;;3.34;75.97
35307;BME280;21420;52.196;21.416;2023-01-15T00:42:27;99629.52;;;3.36;75.94
35307;BME280;21420;52.196;21.416;2023-01-15T00:44:54;99622.28;;;3.35;75.93
35307;BME280;21420;52.196;21.416;2023-01-15T00:47:21;99616.83;;;3.34;75.95
35307;BME280;21420;52.196;21.416;2023-01-15T00:49:49;99621.73;;;3.33;75.98
35307;BME280;21420;52.196;21.416;2023-01-15T00:52:17;99612.96;;;3.32;75.99
35307;BME280;21420;52.196;21.416;2023-01-15T00:54:44;99614.27;;;3.32;76.02
35307;BME280;21420;52.196;21.416;2023-01-15T00:57:11;99606.81;;;3.32;76.01
35307;BME280;21420;52.196;21.416;2023-01-15T00:59:37;99607.73;;;3.34;76.02
35307;BME280;21420;52.196;21.416;2023-01-15T01:02:05;99603.82;;;3.37;75.98
35307;BME280;21420;52.196;21.416;2023-01-15T01:04:31;99604.66;;;3.37;75.90
35307;BME280;21420;52.196;21.416;2023-01-15T01:06:58;99604.88;;;3.36;75.88
35307;BME280;21420;52.196;21.416;2023-01-15T01:09:25;99599.33;;;3.35;75.94
35307;BME280;21420;52.196;21.416;2023-01-15T01:11:52;99601.45;;;3.34;76.01
35307;BME280;21420;52.196;21.416;2023-01-15T01:14:20;99593.27;;;3.34;75.92
35307;BME280;21420;52.196;21.416;2023-01-15T01:16:50;99589.07;;;3.34;75.97
35307;BME280;21420;52.196;21.416;2023-01-15T01:19:18;99587.93;;;3.34;75.99
35307;BME280;21420;52.196;21.416;2023-01-15T01:21:46;99582.77;;;3.34;75.92
35307;BME280;21420;52.196;21.416;2023-01-15T01:24:16;99582.05;;;3.33;75.94
35307;BME280;21420;52.196;21.416;2023-01-15T01:26:45;99579.66;;;3.31;75.92
35307;BME280;21420;52.196;21.416;2023-01-15T01:29:18;99578.05;;;3.30;75.82
35307;BME280;21420;52.196;21.416;2023-01-15T01:31:45;99571.91;;;3.29;75.72
35307;BME280;21420;52.196;21.416;2023-01-15T01:34:13;99570.02;;;3.29;75.78
35307;BME280;21420;52.196;21.416;2023-01-15T01:36:42;99566.20;;;3.30;75.94
35307;BME280;21420;52.196;21.416;2023-01-15T01:39:15;99572.90;;;3.32;75.87
35307;BME280;21420;52.196;21.416;2023-01-15T01:41:43;99564.88;;;3.34;75.88
35307;BME280;21420;52.196;21.416;2023-01-15T01:47:17;99552.27;;;3.31;75.88
35307;BME280;21420;52.196;21.416;2023-01-15T01:49:51;99563.04;;;3.31;75.89
35307;BME280;21420;52.196;21.416;2023-01-15T01:52:26;99557.61;;;3.31;75.80
35307;BME280;21420;52.196;21.416;2023-01-15T01:54:53;99552.62;;;3.30;75.76
35307;BME280;21420;52.196;21.416;2023-01-15T01:57:21;99550.11;;;3.26;75.78
35307;BME280;21420;52.196;21.416;2023-01-15T01:59:49;99543.60;;;3.25;75.78
35307;BME280;21420;52.196;21.416;2023-01-15T02:02:19;99542.43;;;3.22;75.76
35307;BME280;21420;52.196;21.416;2023-01-15T02:04:48;99541.03;;;3.19;75.80
35307;BME280;21420;52.196;21.416;2023-01-15T02:07:15;99532.06;;;3.16;75.84
35307;BME280;21420;52.196;21.416;2023-01-15T02:09:43;99524.16;;;3.14;75.71
35307;BME280;21420;52.196;21.416;2023-01-15T02:12:21;99515.61;;;3.11;75.74
35307;BME280;21420;52.196;21.416;2023-01-15T02:15:06;99504.20;;;3.09;75.71
35307;BME280;21420;52.196;21.416;2023-01-15T02:18:17;99493.39;;;3.05;75.65
35307;BME280;21420;52.196;21.416;2023-01-15T02:20:48;99487.63;;;2.99;75.70
35307;BME280;21420;52.196;21.416;2023-01-15T02:23:49;99482.18;;;2.96;75.60
35307;BME280;21420;52.196;21.416;2023-01-15T02:32:41;99485.86;;;2.82;75.57
35307;BME280;21420;52.196;21.416;2023-01-15T02:35:19;99491.75;;;2.79;75.75
35307;BME280;21420;52.196;21.416;2023-01-15T02:37:52;99488.84;;;2.78;75.67
35307;BME280;21420;52.196;21.416;2023-01-15T02:40:23;99491.95;;;2.76;75.62
35307;BME280;21420;52.196;21.416;2023-01-15T02:42:52;99495.52;;;2.73;75.61
35307;BME280;21420;52.196;21.416;2023-01-15T02:45:24;99496.70;;;2.70;75.58
35307;BME280;21420;52.196;21.416;2023-01-15T02:48:01;99495.27;;;2.67;75.53
35307;BME280;21420;52.196;21.416;2023-01-15T02:50:36;99494.08;;;2.65;75.67
35307;BME280;21420;52.196;21.416;2023-01-15T02:53:08;99490.17;;;2.65;75.66
35307;BME280;21420;52.196;21.416;2023-01-15T02:55:41;99498.23;;;2.67;75.70
35307;BME280;21420;52.196;21.416;2023-01-15T02:58:14;99496.73;;;2.69;75.80
35307;BME280;21420;52.196;21.416;2023-01-15T03:00:45;99483.24;;;2.73;75.82
35307;BME280;21420;52.196;21.416;2023-01-15T03:06:14;99479.37;;;2.72;75.66
35307;BME280;21420;52.196;21.416;2023-01-15T03:08:44;99470.68;;;2.66;75.65
35307;BME280;21420;52.196;21.416;2023-01-15T03:11:14;99457.80;;;2.62;75.52
35307;BME280;21420;52.196;21.416;2023-01-15T03:13:50;99445.51;;;2.58;75.61
35307;BME280;21420;52.196;21.416;2023-01-15T03:17:01;99431.32;;;2.55;75.56
35307;BME280;21420;52.196;21.416;2023-01-15T03:19:40;99422.00;;;2.54;75.49
35307;BME280;21420;52.196;21.416;2023-01-15T03:27:21;99416.36;;;2.56;75.52
35307;BME280;21420;52.196;21.416;2023-01-15T03:30:06;99404.77;;;2.55;75.61
35307;BME280;21420;52.196;21.416;2023-01-15T03:32:33;99401.61;;;2.54;75.53
35307;BME280;21420;52.196;21.416;2023-01-15T03:35:37;99398.69;;;2.54;75.47
35307;BME280;21420;52.196;21.416;2023-01-15T03:37:52;99400.33;;;2.53;75.50
35307;BME280;21420;52.196;21.416;2023-01-15T03:40:19;99400.77;;;2.53;75.59
35307;BME280;21420;52.196;21.416;2023-01-15T03:42:53;99403.39;;;2.54;75.59
35307;BME280;21420;52.196;21.416;2023-01-15T03:45:46;99412.69;;;2.56;75.69
35307;BME280;21420;52.196;21.416;2023-01-15T03:48:25;99405.55;;;2.59;75.68
35307;BME280;21420;52.196;21.416;2023-01-15T03:51:46;99395.84;;;2.60;75.66
35307;BME280;21420;52.196;21.416;2023-01-15T03:53:50;99385.24;;;2.60;75.62
35307;BME280;21420;52.196;21.416;2023-01-15T03:56:35;99368.39;;;2.60;75.80
35307;BME280;21420;52.196;21.416;2023-01-15T03:59:16;99362.46;;;2.59;75.75
35307;BME280;21420;52.196;21.416;2023-01-15T04:01:52;99358.06;;;2.57;75.76
35307;BME280;21420;52.196;21.416;2023-01-15T04:04:23;99354.02;;;2.57;75.74
35307;BME280;21420;52.196;21.416;2023-01-15T04:06:53;99349.50;;;2.59;75.71
35307;BME280;21420;52.196;21.416;2023-01-15T04:09:22;99352.59;;;2.60;75.70
35307;BME280;21420;52.196;21.416;2023-01-15T04:11:52;99353.13;;;2.63;75.83
35307;BME280;21420;52.196;21.416;2023-01-15T04:14:19;99353.05;;;2.66;75.85
35307;BME280;21420;52.196;21.416;2023-01-15T04:16:50;99344.52;;;2.67;75.77
35307;BME280;21420;52.196;21.416;2023-01-15T04:19:17;99337.98;;;2.69;75.75
35307;BME280;21420;52.196;21.416;2023-01-15T04:21:51;99324.77;;;2.71;75.83
35307;BME280;21420;52.196;21.416;2023-01-15T04:24:17;99318.46;;;2.71;75.88
35307;BME280;21420;52.196;21.416;2023-01-15T04:26:44;99324.19;;;2.75;75.79
35307;BME280;21420;52.196;21.416;2023-01-15T04:29:11;99318.52;;;2.77;75.82
35307;BME280;21420;52.196;21.416;2023-01-15T04:31:38;99317.04;;;2.81;75.91
35307;BME280;21420;52.196;21.416;2023-01-15T04:34:06;99316.66;;;2.83;75.96
35307;BME280;21420;52.196;21.416;2023-01-15T04:36:33;99328.38;;;2.86;75.91
35307;BME280;21420;52.196;21.416;2023-01-15T04:39:04;99312.70;;;2.90;75.85
35307;BME280;21420;52.196;21.416;2023-01-15T04:41:31;99314.05;;;2.94;75.86
35307;BME280;21420;52.196;21.416;2023-01-15T04:44:16;99305.76;;;2.95;75.75
35307;BME280;21420;52.196;21.416;2023-01-15T04:46:44;99303.11;;;2.97;75.82
35307;BME280;21420;52.196;21.416;2023-01-15T04:49:17;99288.05;;;2.98;75.75
35307;BME280;21420;52.196;21.416;2023-01-15T04:51:44;99277.20;;;3.01;75.79
35307;BME280;21420;52.196;21.416;2023-01-15T04:54:13;99265.06;;;3.04;75.80
35307;BME280;21420;52.196;21.416;2023-01-15T04:56:44;99268.73;;;3.04;75.73
35307;BME280;21420;52.196;21.416;2023-01-15T04:59:13;99264.28;;;3.06;75.80
35307;BME280;21420;52.196;21.416;2023-01-15T05:01:40;99270.20;;;3.08;75.85
35307;BME280;21420;52.196;21.416;2023-01-15T05:04:27;99258.40;;;3.10;75.76
35307;BME280;21420;52.196;21.416;2023-01-15T05:06:57;99251.60;;;3.13;75.85
35307;BME280;21420;52.196;21.416;2023-01-15T05:09:24;99247.41;;;3.16;75.70
35307;BME280;21420;52.196;21.416;2023-01-15T05:11:50;99237.52;;;3.18;75.84
35307;BME280;21420;52.196;21.416;2023-01-15T05:14:17;99234.88;;;3.21;75.80
35307;BME280;21420;52.196;21.416;2023-01-15T05:16:44;99236.60;;;3.23;75.80
35307;BME280;21420;52.196;21.416;2023-01-15T05:19:11;99241.40;;;3.22;75.70
35307;BME280;21420;52.196;21.416;2023-01-15T05:21:41;99243.92;;;3.19;75.64
35307;BME280;21420;52.196;21.416;2023-01-15T05:24:13;99239.13;;;3.16;75.67
35307;BME280;21420;52.196;21.416;2023-01-15T05:26:41;99241.27;;;3.17;75.75
35307;BME280;21420;52.196;21.416;2023-01-15T05:29:10;99240.67;;;3.17;75.69
35307;BME280;21420;52.196;21.416;2023-01-15T05:31:38;99232.38;;;3.16;75.63
35307;BME280;21420;52.196;21.416;2023-01-15T05:34:05;99225.59;;;3.12;75.64
35307;BME280;21420;52.196;21.416;2023-01-15T05:36:32;99228.11;;;3.10;75.67
35307;BME280;21420;52.196;21.416;2023-01-15T05:38:59;99228.45;;;3.09;75.59
35307;BME280;21420;52.196;21.416;2023-01-15T05:41:29;99220.20;;;3.08;75.52
35307;BME280;21420;52.196;21.416;2023-01-15T05:44:26;99214.19;;;3.06;75.54
35307;BME280;21420;52.196;21.416;2023-01-15T05:46:56;99209.67;;;3.06;75.60
35307;BME280;21420;52.196;21.416;2023-01-15T05:49:26;99231.98;;;3.09;75.68
35307;BME280;21420;52.196;21.416;2023-01-15T05:51:53;99239.92;;;3.13;75.66
35307;BME280;21420;52.196;21.416;2023-01-15T05:54:23;99230.77;;;3.17;75.75
35307;BME280;21420;52.196;21.416;2023-01-15T05:56:50;99225.28;;;3.22;75.85
35307;BME280;21420;52.196;21.416;2023-01-15T05:59:20;99221.66;;;3.27;75.87
35307;BME280;21420;52.196;21.416;2023-01-15T06:01:47;99225.30;;;3.34;75.90
35307;BME280;21420;52.196;21.416;2023-01-15T06:04:15;99227.09;;;3.43;75.84
35307;BME280;21420;52.196;21.416;2023-01-15T06:06:50;99226.73;;;3.52;75.99
35307;BME280;21420;52.196;21.416;2023-01-15T06:09:18;99222.80;;;3.59;75.98
35307;BME280;21420;52.196;21.416;2023-01-15T06:11:46;99211.34;;;3.67;75.96
35307;BME280;21420;52.196;21.416;2023-01-15T06:14:13;99210.77;;;3.77;75.99
35307;BME280;21420;52.196;21.416;2023-01-15T06:16:40;99202.80;;;3.86;76.00
35307;BME280;21420;52.196;21.416;2023-01-15T06:19:08;99199.34;;;3.91;76.01
35307;BME280;21420;52.196;21.416;2023-01-15T06:21:36;99194.60;;;3.96;75.86
35307;BME280;21420;52.196;21.416;2023-01-15T06:24:04;99191.41;;;4.02;75.90
35307;BME280;21420;52.196;21.416;2023-01-15T06:26:31;99188.77;;;4.05;75.81
35307;BME280;21420;52.196;21.416;2023-01-15T06:28:58;99190.76;;;4.08;75.78
35307;BME280;21420;52.196;21.416;2023-01-15T06:31:25;99185.90;;;4.12;75.81
35307;BME280;21420;52.196;21.416;2023-01-15T06:33:55;99188.09;;;4.16;75.77
35307;BME280;21420;52.196;21.416;2023-01-15T06:36:23;99182.98;;;4.20;75.67
35307;BME280;21420;52.196;21.416;2023-01-15T06:38:50;99170.52;;;4.22;75.60
35307;BME280;21420;52.196;21.416;2023-01-15T06:41:22;99165.87;;;4.22;75.57
35307;BME280;21420;52.196;21.416;2023-01-15T06:44:15;99169.82;;;4.23;75.57
35307;BME280;21420;52.196;21.416;2023-01-15T06:47:21;99175.20;;;4.26;75.59
35307;BME280;21420;52.196;21.416;2023-01-15T06:49:52;99166.64;;;4.27;75.51
35307;BME280;21420;52.196;21.416;2023-01-15T06:52:21;99168.78;;;4.28;75.43
35307;BME280;21420;52.196;21.416;2023-01-15T06:54:48;99167.86;;;4.30;75.41
35307;BME280;21420;52.196;21.416;2023-01-15T06:57:16;99172.19;;;4.32;75.37
35307;BME280;21420;52.196;21.416;2023-01-15T06:59:45;99170.11;;;4.34;75.41
35307;BME280;21420;52.196;21.416;2023-01-15T07:02:12;99177.36;;;4.37;75.37
35307;BME280;21420;52.196;21.416;2023-01-15T07:04:39;99173.21;;;4.40;75.36
35307;BME280;21420;52.196;21.416;2023-01-15T07:07:06;99169.41;;;4.43;75.34
35307;BME280;21420;52.196;21.416;2023-01-15T07:09:33;99161.26;;;4.47;75.27
35307;BME280;21420;52.196;21.416;2023-01-15T07:12:00;99149.78;;;4.46;75.23
35307;BME280;21420;52.196;21.416;2023-01-15T07:14:27;99153.21;;;4.43;75.24
35307;BME280;21420;52.196;21.416;2023-01-15T07:16:56;99151.34;;;4.41;75.14
35307;BME280;21420;52.196;21.416;2023-01-15T07:19:24;99150.33;;;4.39;75.12
35307;BME280;21420;52.196;21.416;2023-01-15T07:21:53;99154.92;;;4.37;74.98
35307;BME280;21420;52.196;21.416;2023-01-15T07:24:20;99152.77;;;4.34;75.10
35307;BME280;21420;52.196;21.416;2023-01-15T07:26:47;99147.70;;;4.31;75.05
35307;BME280;21420;52.196;21.416;2023-01-15T07:29:14;99152.67;;;4.30;75.05
35307;BME280;21420;52.196;21.416;2023-01-15T07:31:41;99149.02;;;4.31;75.01
35307;BME280;21420;52.196;21.416;2023-01-15T07:34:09;99159.48;;;4.29;75.07
35307;BME280;21420;52.196;21.416;2023-01-15T07:36:38;99154.41;;;4.27;74.99
35307;BME280;21420;52.196;21.416;2023-01-15T07:39:07;99160.73;;;4.23;74.93
35307;BME280;21420;52.196;21.416;2023-01-15T07:41:34;99159.73;;;4.17;74.90
35307;BME280;21420;52.196;21.416;2023-01-15T07:44:21;99161.16;;;4.02;74.62
35307;BME280;21420;52.196;21.416;2023-01-15T07:47:28;99157.40;;;3.69;74.22
35307;BME280;21420;52.196;21.416;2023-01-15T07:50:16;99148.02;;;3.27;73.84
35307;BME280;21420;52.196;21.416;2023-01-15T07:52:46;99145.17;;;3.05;74.04
35307;BME280;21420;52.196;21.416;2023-01-15T07:55:13;99146.10;;;2.97;74.15
35307;BME280;21420;52.196;21.416;2023-01-15T07:57:41;99143.80;;;2.90;74.20
35307;BME280;21420;52.196;21.416;2023-01-15T08:00:12;99139.08;;;2.85;74.33
35307;BME280;21420;52.196;21.416;2023-01-15T08:02:40;99138.41;;;2.84;74.45
35307;BME280;21420;52.196;21.416;2023-01-15T08:05:08;99136.37;;;2.83;74.53
35307;BME280;21420;52.196;21.416;2023-01-15T08:07:38;99128.86;;;2.83;74.63
35307;BME280;21420;52.196;21.416;2023-01-15T08:10:11;99125.44;;;2.84;74.80
35307;BME280;21420;52.196;21.416;2023-01-15T08:12:38;99127.11;;;2.87;74.94
35307;BME280;21420;52.196;21.416;2023-01-15T08:15:25;99134.60;;;2.90;74.98
35307;BME280;21420;52.196;21.416;2023-01-15T08:17:52;99130.98;;;2.94;75.13
35307;BME280;21420;52.196;21.416;2023-01-15T08:20:22;99127.93;;;2.96;75.09
35307;BME280;21420;52.196;21.416;2023-01-15T08:22:50;99129.83;;;2.99;75.20
35307;BME280;21420;52.196;21.416;2023-01-15T08:25:19;99129.06;;;3.02;75.16
35307;BME280;21420;52.196;21.416;2023-01-15T08:27:47;99132.88;;;3.06;75.29
35307;BME280;21420;52.196;21.416;2023-01-15T08:30:17;99132.02;;;3.10;75.32
35307;BME280;21420;52.196;21.416;2023-01-15T08:32:44;99118.90;;;3.13;75.35
35307;BME280;21420;52.196;21.416;2023-01-15T08:35:12;99114.21;;;3.16;75.34
35307;BME280;21420;52.196;21.416;2023-01-15T08:37:40;99116.38;;;3.17;75.33
35307;BME280;21420;52.196;21.416;2023-01-15T08:40:09;99120.30;;;3.22;75.41
35307;BME280;21420;52.196;21.416;2023-01-15T08:42:36;99116.56;;;3.25;75.42
35307;BME280;21420;52.196;21.416;2023-01-15T08:45:04;99115.85;;;3.28;75.40
35307;BME280;21420;52.196;21.416;2023-01-15T08:47:31;99111.99;;;3.31;75.44
35307;BME280;21420;52.196;21.416;2023-01-15T08:49:59;99110.41;;;3.36;75.36
35307;BME280;21420;52.196;21.416;2023-01-15T08:52:26;99107.55;;;3.39;75.42
35307;BME280;21420;52.196;21.416;2023-01-15T08:54:53;99105.35;;;3.44;75.41
35307;BME280;21420;52.196;21.416;2023-01-15T08:57:20;99105.33;;;3.46;75.29
35307;BME280;21420;52.196;21.416;2023-01-15T08:59:47;99102.60;;;3.50;75.44
35307;BME280;21420;52.196;21.416;2023-01-15T09:02:14;99104.55;;;3.55;75.41
35307;BME280;21420;52.196;21.416;2023-01-15T09:04:42;99104.54;;;3.61;75.40
35307;BME280;21420;52.196;21.416;2023-01-15T09:07:09;99102.01;;;3.67;75.38
35307;BME280;21420;52.196;21.416;2023-01-15T09:09:36;99093.37;;;3.74;75.40
35307;BME280;21420;52.196;21.416;2023-01-15T09:12:04;99099.48;;;3.83;75.58
35307;BME280;21420;52.196;21.416;2023-01-15T09:14:31;99105.21;;;3.94;75.85
35307;BME280;21420;52.196;21.416;2023-01-15T09:17:18;99094.87;;;4.06;76.08
35307;BME280;21420;52.196;21.416;2023-01-15T09:19:45;99098.46;;;4.16;76.16
35307;BME280;21420;52.196;21.416;2023-01-15T09:22:12;99089.17;;;4.28;76.24
35307;BME280;21420;52.196;21.416;2023-01-15T09:24:39;99095.92;;;4.40;76.28
35307;BME280;21420;52.196;21.416;2023-01-15T09:27:06;99086.52;;;4.51;76.25
35307;BME280;21420;52.196;21.416;2023-01-15T09:29:33;99084.58;;;4.58;76.29
35307;BME280;21420;52.196;21.416;2023-01-15T09:32:00;99083.45;;;4.65;76.34
35307;BME280;21420;52.196;21.416;2023-01-15T09:34:28;99078.92;;;4.70;76.31
35307;BME280;21420;52.196;21.416;2023-01-15T09:36:55;99075.23;;;4.71;76.22
35307;BME280;21420;52.196;21.416;2023-01-15T09:39:22;99073.69;;;4.69;76.13
35307;BME280;21420;52.196;21.416;2023-01-15T09:41:58;99072.08;;;4.66;76.14
35307;BME280;21420;52.196;21.416;2023-01-15T09:52:58;99070.70;;;4.02;75.60
35307;BME280;21420;52.196;21.416;2023-01-15T09:55:32;99070.90;;;3.90;75.60
35307;BME280;21420;52.196;21.416;2023-01-15T09:58:03;99065.80;;;3.78;75.47
35307;BME280;21420;52.196;21.416;2023-01-15T10:00:36;99066.91;;;3.67;75.45
35307;BME280;21420;52.196;21.416;2023-01-15T10:03:27;99064.54;;;3.61;75.40
35307;BME280;21420;52.196;21.416;2023-01-15T10:08:46;99062.27;;;3.50;75.58
35307;BME280;21420;52.196;21.416;2023-01-15T10:13:42;99051.13;;;3.43;75.72
35307;BME280;21420;52.196;21.416;2023-01-15T10:16:16;99049.91;;;3.44;75.85
35307;BME280;21420;52.196;21.416;2023-01-15T10:18:45;99046.77;;;3.44;75.90
35307;BME280;21420;52.196;21.416;2023-01-15T10:21:39;99048.45;;;3.44;75.86
35307;BME280;21420;52.196;21.416;2023-01-15T10:24:13;99041.25;;;3.42;76.00
35307;BME280;21420;52.196;21.416;2023-01-15T10:31:49;99045.77;;;3.40;76.14
35307;BME280;21420;52.196;21.416;2023-01-15T10:37:20;99032.56;;;3.42;76.46
35307;BME280;21420;52.196;21.416;2023-01-15T10:43:28;99024.02;;;3.43;76.53
35307;BME280;21420;52.196;21.416;2023-01-15T10:45:59;99020.50;;;3.45;76.59
35307;BME280;21420;52.196;21.416;2023-01-15T10:48:35;99018.10;;;3.49;76.57
35307;BME280;21420;52.196;21.416;2023-01-15T10:51:36;99014.52;;;3.50;76.76
35307;BME280;21420;52.196;21.416;2023-01-15T10:56:47;99004.36;;;3.51;76.78
35307;BME280;21420;52.196;21.416;2023-01-15T10:59:47;99002.84;;;3.53;76.83
35307;BME280;21420;52.196;21.416;2023-01-15T11:02:31;99006.56;;;3.53;76.82
35307;BME280;21420;52.196;21.416;2023-01-15T11:05:02;99001.89;;;3.52;76.84
35307;BME280;21420;52.196;21.416;2023-01-15T11:07:36;99001.79;;;3.52;76.81
35307;BME280;21420;52.196;21.416;2023-01-15T11:10:24;98997.96;;;3.52;76.93
35307;BME280;21420;52.196;21.416;2023-01-15T11:13:24;98996.79;;;3.53;77.09
35307;BME280;21420;52.196;21.416;2023-01-15T11:16:21;98995.60;;;3.53;77.07
35307;BME280;21420;52.196;21.416;2023-01-15T11:19:26;98983.80;;;3.53;77.07
35307;BME280;21420;52.196;21.416;2023-01-15T11:24:59;98980.84;;;3.52;77.17
35307;BME280;21420;52.196;21.416;2023-01-15T11:27:29;98982.75;;;3.54;77.28
35307;BME280;21420;52.196;21.416;2023-01-15T11:30:00;98973.28;;;3.55;77.28
35307;BME280;21420;52.196;21.416;2023-01-15T11:34:58;98974.45;;;3.55;77.36
35307;BME280;21420;52.196;21.416;2023-01-15T11:37:27;98973.85;;;3.56;77.44
35307;BME280;21420;52.196;21.416;2023-01-15T11:39:59;98975.29;;;3.54;77.44
35307;BME280;21420;52.196;21.416;2023-01-15T11:42:31;98964.91;;;3.54;77.43
35307;BME280;21420;52.196;21.416;2023-01-15T11:45:19;98971.88;;;3.54;77.42
35307;BME280;21420;52.196;21.416;2023-01-15T11:48:17;98960.73;;;3.54;77.41
35307;BME280;21420;52.196;21.416;2023-01-15T11:51:15;98965.67;;;3.56;77.48
35307;BME280;21420;52.196;21.416;2023-01-15T11:53:46;98961.30;;;3.59;77.52
35307;BME280;21420;52.196;21.416;2023-01-15T11:56:20;98955.88;;;3.60;77.63
35307;BME280;21420;52.196;21.416;2023-01-15T11:58:52;98947.79;;;3.61;77.62
35307;BME280;21420;52.196;21.416;2023-01-15T12:01:53;98959.83;;;3.62;77.67
35307;BME280;21420;52.196;21.416;2023-01-15T12:04:49;98954.93;;;3.64;77.78
35307;BME280;21420;52.196;21.416;2023-01-15T12:07:22;98946.54;;;3.64;77.87
35307;BME280;21420;52.196;21.416;2023-01-15T12:12:57;98939.69;;;3.65;77.82
35307;BME280;21420;52.196;21.416;2023-01-15T12:15:55;98943.81;;;3.66;77.88
35307;BME280;21420;52.196;21.416;2023-01-15T12:22:04;98938.39;;;3.71;78.12
35307;BME280;21420;52.196;21.416;2023-01-15T12:33:18;98934.25;;;3.77;78.06
35307;BME280;21420;52.196;21.416;2023-01-15T12:35:57;98934.20;;;3.78;78.04
35307;BME280;21420;52.196;21.416;2023-01-15T12:41:31;98942.52;;;3.79;78.18
35307;BME280;21420;52.196;21.416;2023-01-15T12:47:37;98947.77;;;3.80;78.18
35307;BME280;21420;52.196;21.416;2023-01-15T12:50:27;98946.83;;;3.82;78.11
35307;BME280;21420;52.196;21.416;2023-01-15T12:58:19;98945.89;;;3.87;78.16
35307;BME280;21420;52.196;21.416;2023-01-15T13:01:03;98943.95;;;3.87;78.20
35307;BME280;21420;52.196;21.416;2023-01-15T13:06:23;98946.27;;;3.89;78.17
35307;BME280;21420;52.196;21.416;2023-01-15T13:08:58;98942.57;;;3.91;78.20
35307;BME280;21420;52.196;21.416;2023-01-15T13:11:28;98951.36;;;3.92;78.12
35307;BME280;21420;52.196;21.416;2023-01-15T13:13:55;98943.73;;;3.93;78.14
35307;BME280;21420;52.196;21.416;2023-01-15T13:16:27;98951.33;;;3.93;78.11
35307;BME280;21420;52.196;21.416;2023-01-15T13:21:27;98951.76;;;3.94;78.29
35307;BME280;21420;52.196;21.416;2023-01-15T13:29:19;98953.42;;;3.98;78.37
35307;BME280;21420;52.196;21.416;2023-01-15T13:34:30;98954.92;;;4.00;78.37
35307;BME280;21420;52.196;21.416;2023-01-15T13:37:06;98948.19;;;4.02;78.40
35307;BME280;21420;52.196;21.416;2023-01-15T13:39:38;98941.77;;;4.04;78.31
35307;BME280;21420;52.196;21.416;2023-01-15T13:42:18;98942.88;;;4.07;78.22
35307;BME280;21420;52.196;21.416;2023-01-15T13:44:58;98952.42;;;4.07;78.19
35307;BME280;21420;52.196;21.416;2023-01-15T13:47:27;98958.63;;;4.08;78.21
35307;BME280;21420;52.196;21.416;2023-01-15T13:50:00;98949.23;;;4.09;78.20
35307;BME280;21420;52.196;21.416;2023-01-15T13:52:31;98946.59;;;4.10;78.27
35307;BME280;21420;52.196;21.416;2023-01-15T13:55:00;98947.62;;;4.11;78.16
35307;BME280;21420;52.196;21.416;2023-01-15T13:57:32;98946.78;;;4.13;78.17
35307;BME280;21420;52.196;21.416;2023-01-15T14:00:00;98954.02;;;4.14;78.14
35307;BME280;21420;52.196;21.416;2023-01-15T14:02:37;98949.87;;;4.15;78.15
35307;BME280;21420;52.196;21.416;2023-01-15T14:05:16;98952.98;;;4.16;78.22
35307;BME280;21420;52.196;21.416;2023-01-15T14:07:50;98955.48;;;4.16;78.15
35307;BME280;21420;52.196;21.416;2023-01-15T14:15:23;98948.70;;;4.19;78.03
35307;BME280;21420;52.196;21.416;2023-01-15T14:34:15;98956.13;;;4.23;78.09
35307;BME280;21420;52.196;21.416;2023-01-15T14:36:48;98956.00;;;4.24;78.08
35307;BME280;21420;52.196;21.416;2023-01-15T14:39:29;98963.17;;;4.25;78.06
35307;BME280;21420;52.196;21.416;2023-01-15T14:42:04;98965.81;;;4.25;78.03
35307;BME280;21420;52.196;21.416;2023-01-15T14:45:03;98966.39;;;4.26;78.02
35307;BME280;21420;52.196;21.416;2023-01-15T14:50:21;98968.05;;;4.27;78.01
35307;BME280;21420;52.196;21.416;2023-01-15T14:52:50;98966.17;;;4.29;78.11
35307;BME280;21420;52.196;21.416;2023-01-15T14:55:18;98961.77;;;4.29;78.17
35307;BME280;21420;52.196;21.416;2023-01-15T14:58:02;98959.05;;;4.31;78.22
35307;BME280;21420;52.196;21.416;2023-01-15T15:00:33;98958.81;;;4.33;78.23
35307;BME280;21420;52.196;21.416;2023-01-15T15:03:01;98957.48;;;4.36;78.24
35307;BME280;21420;52.196;21.416;2023-01-15T15:05:30;98961.92;;;4.39;78.35
35307;BME280;21420;52.196;21.416;2023-01-15T15:07:59;98960.77;;;4.41;78.37
35307;BME280;21420;52.196;21.416;2023-01-15T15:10:34;98961.80;;;4.44;78.43
35307;BME280;21420;52.196;21.416;2023-01-15T15:25:56;98956.45;;;4.66;78.92
35307;BME280;21420;52.196;21.416;2023-01-15T15:28:23;98955.80;;;4.70;78.88
35307;BME280;21420;52.196;21.416;2023-01-15T15:30:50;98951.05;;;4.75;78.99
35307;BME280;21420;52.196;21.416;2023-01-15T15:33:19;98946.08;;;4.79;78.90
35307;BME280;21420;52.196;21.416;2023-01-15T15:35:55;98950.20;;;4.82;78.92